Tiempo atmosférico en la estación meteorológica de Almazul, Soria (1000 m.)



Fecha
DESCASC
Temp. máxima en grados centígrados (hora)
DESCASC
Temp. mínima en grados centígrados (hora)
DESCASC
Temp. media en grados centígrados
DESCASC
Racha de viento máxima en m/sg (hora)
DESCASC
Velocidad máxima media en intervalos de 10 minutos(hora)
DESCASC
Precipitaciones diarias en mm
DESCASC
Precipitaciones de 00:00 a 06:00 en mm
DESCASC
Precipitaciones de 06:00 a 12:00 en mm
DESCASC
Precipitaciones de 12:00 a 18:00 en mm
DESCASC
Precipitaciones de 18:00 a 24:00 en mm
DESCASC
11-12-2019 5.8 (16:00) 1 (04:50) 3.4 12.5 (23:00) 8.61 (12:10) 1.2 0 0.4 0.8 0
08-12-2019 8.6 (14:00) -0.9 (-00:0) 3.9 10.83 (14:50) 7.78 (14:50) 2.8 0 0 1.8 1
07-12-2019 11.8 (17:10) -2.1 (-00:0) 4.9 4.72 (01:20) 3.33 (01:40) 0 0 0 0 0
06-12-2019 10.8 (14:00) 0.2 (00:00) 5.5 5.83 (14:50) 3.89 (15:00) 0 0 0 0 0
05-12-2019 8.6 (14:50) 3.8 (00:00) 6.2 15 (01:40) 11.94 (01:40) 0 0 0 0 0
04-12-2019 9.8 (11:30) 0.9 (00:00) 5.4 13.89 (17:20) 10.56 (19:20) 0.2 0.2 0 0 0
03-12-2019 4.1 (12:30) -1.4 (-00:0) 1.3 10.28 (04:10) 7.22 (05:40) -- 0 0 -- 0
02-12-2019 6.5 (14:30) 0 (00:00) 3.3 15.28 (13:00) 11.94 (13:00) 0 0 0 0 0
01-12-2019 10.6 (16:40) 0.8 (00:00) 5.7 8.33 (23:59) 6.11 (23:59) 0.2 0 0 0.2 0
30-11-2019 12.6 (12:20) 4.4 (00:00) 8.5 15 (16:00) 11.11 (15:40) 2.4 0 0 0 2.4
29-11-2019 13 (16:00) 6 (00:00) 9.5 10.28 (03:00) 6.67 (03:00) 0.4 0 0.4 0 0
28-11-2019 10.7 (11:50) 6.6 (08:20) 8.6 14.44 (00:30) 10 (00:30) 0.2 0 0 0 0.2
27-11-2019 10.6 (00:00) 5.8 (00:00) 8.2 16.67 (02:10) 11.11 (02:10) 0.4 0.4 0 0 0
26-11-2019 12.2 (12:10) 6.1 (00:00) 9.1 19.17 (19:40) 12.78 (17:30) 0 0 0 0 0
25-11-2019 11.7 (15:00) 4.5 (02:10) 8.1 10.83 (14:20) 7.22 (13:30) 2 1.8 0 0.2 0
24-11-2019 6 (16:40) 1.1 (00:00) 3.6 15 (01:00) 10.83 (13:50) 0 0 0 0 0
23-11-2019 7.8 (15:50) 3.1 (00:00) 5.5 17.5 (08:20) 12.5 (08:20) 0.2 0.2 0 0 0
22-11-2019 9.6 (19:10) 1.5 (00:00) 5.6 15.83 (20:00) 10.83 (16:40) 7 0.2 2.6 0.8 3.4
21-11-2019 7.9 (14:10) 2.1 (00:00) 5 11.11 (16:20) 8.06 (11:50) 0.8 0 0 0.8 0
20-11-2019 7.7 (16:00) -1.3 (07:40) 3.2 9.72 (15:30) 7.22 (15:30) 1.8 0 0 0 1.8
19-11-2019 7.5 (15:50) -3 (-00:0) 2.3 8.61 (13:50) 6.11 (15:00) 0 0 0 0 0
18-11-2019 6 (14:50) 0.8 (00:00) 3.4 16.67 (15:20) 12.78 (15:20) 0 0 0 0 0
17-11-2019 4.1 (14:00) -0.5 (-00:0) 1.8 13.06 (07:50) 8.61 (07:50) 1.4 0 0 1.2 0.2
16-11-2019 3.7 (16:30) -2 (-00:0) 0.9 11.67 (15:30) 8.33 (15:40) 0 0 0 0 0
15-11-2019 4.8 (16:10) -0.1 (00:00) 2.4 15.28 (14:50) 10.28 (15:10) 0.8 0.2 0.6 0 0

Gráficas

Temp. máximas Temp. mínimas Temp. medias Precipitaciones Rachas de viento máximas Velocidades máximas media en intervalos de 10 minutos

Datos horarios

Fecha y hora oficial Temperatura (ºC) Velocidad del viento (km/h) Dirección del viento Racha (km/h) Dirección de racha Precipitación (mm) Presión (hPa) Tendencia (hPa) Humedad (%)
2019-12-14 23:00:00 6.3 12 Oeste 18 Oeste 0 -- -- 88
2019-12-14 22:00:00 6.8 9 Oeste 18 Oeste 0 -- -- 84
2019-12-14 21:00:00 7 12 Oeste 22 Oeste 0 -- -- 82
2019-12-14 20:00:00 7.2 17 Oeste 26 Oeste 0 -- -- 80
2019-12-14 19:00:00 7.4 13 Oeste 22 Noroeste 0 -- -- 80
2019-12-14 18:00:00 7.8 13 Oeste 37 Noroeste 0 -- -- 73
2019-12-14 17:00:00 8.6 18 Noroeste 47 Noroeste 0 -- -- 70
2019-12-14 16:00:00 8.6 21 Noroeste 35 Noroeste 0 -- -- 69
2019-12-14 15:00:00 8.6 23 Noroeste 48 Noroeste 0 -- -- 69
2019-12-14 14:00:00 8 29 Noroeste 44 Oeste 0 -- -- 71
2019-12-14 13:00:00 8.2 26 Noroeste 46 Noroeste 0 -- -- 71
2019-12-14 12:00:00 8.4 18 Noroeste 35 Noroeste 0 -- -- 73
2019-12-14 11:00:00 7.9 19 Noroeste 35 Noroeste 0 -- -- 75
2019-12-14 10:00:00 7.3 17 Noroeste 29 Noroeste 0 -- -- 78
2019-12-14 09:00:00 7.1 14 Noroeste 33 Noroeste 0 -- -- 79
2019-12-14 08:00:00 7 13 Noroeste 34 Norte 0 -- -- 82
2019-12-14 07:00:00 7.1 16 Noroeste 28 Noroeste 0 -- -- 80
2019-12-14 06:00:00 7.3 21 Noroeste 44 Noroeste 0 -- -- 80
2019-12-14 05:00:00 7.4 14 Noroeste 25 Noroeste 0 -- -- 79
2019-12-14 04:00:00 7.7 3 Sudeste 29 Noroeste 0 -- -- 79
2019-12-14 03:00:00 8.1 15 Noroeste 45 Noroeste 0 -- -- 77
2019-12-14 02:00:00 8.2 26 Noroeste 52 Noroeste 0 -- -- 80
2019-12-14 01:00:00 8.4 37 Noroeste 61 Noroeste 0 -- -- 79
2019-12-14 00:00:00 8.7 28 Noroeste 49 Oeste 0 -- -- 81
2019-12-13 23:00:00 8.9 36 Noroeste 68 Noroeste 0 -- -- 82
2019-12-13 22:00:00 9.1 40 Noroeste 68 Noroeste 0 -- -- 82
2019-12-13 21:00:00 9.7 48 Noroeste 65 Noroeste 0 -- -- 81
2019-12-13 20:00:00 10 30 Noroeste 50 Noroeste 0 -- -- 83
2019-12-13 19:00:00 10.4 36 Noroeste 67 Noroeste 0 -- -- 82
2019-12-13 18:00:00 10.6 33 Noroeste 58 Noroeste 0 -- -- 82
2019-12-13 17:00:00 10.6 32 Noroeste 52 Noroeste 0 -- -- 82
2019-12-13 16:00:00 11 36 Noroeste 57 Noroeste 0 -- -- 81
2019-12-13 15:00:00 10.7 32 Noroeste 46 Noroeste 0 -- -- 83
2019-12-13 14:00:00 9.1 29 Noroeste 55 Noroeste 0 -- -- 90
2019-12-13 13:00:00 9.4 38 Noroeste 62 Noroeste 0 -- -- 85
2019-12-13 12:00:00 9.1 42 Noroeste 64 Noroeste 0 -- -- 84
2019-12-13 11:00:00 9 31 Noroeste 58 Noroeste 0 -- -- 84
2019-12-13 10:00:00 9 36 Noroeste 55 Noroeste 0 -- -- 83
2019-12-13 09:00:00 9.2 33 Noroeste 62 Noroeste 0 -- -- 84
2019-12-13 08:00:00 9.3 39 Noroeste 69 Noroeste 0 -- -- 85
2019-12-13 07:00:00 9.5 35 Noroeste 63 Noroeste 0 -- -- 86
2019-12-13 06:00:00 9.5 36 Noroeste 73 Noroeste 0 -- -- 89
2019-12-13 05:00:00 9.6 39 Noroeste 63 Oeste 0 -- -- 89
2019-12-13 04:00:00 9.4 38 Noroeste 58 Oeste 0 -- -- 90
2019-12-13 03:00:00 8.9 28 Noroeste 46 Oeste 0 -- -- 92
2019-12-13 02:00:00 9 27 Noroeste 53 Noroeste 0 -- -- 90
2019-12-13 01:00:00 8.8 31 Noroeste 53 Noroeste 0 -- -- 91
2019-12-13 00:00:00 8.3 27 Noroeste 46 Oeste 0 -- -- 93
2019-12-12 23:00:00 7.9 25 Noroeste 45 Noroeste 0 -- -- 94
2019-12-12 22:00:00 7.2 26 Oeste 44 Oeste 0.2 -- -- 95
2019-12-12 21:00:00 6.6 26 Oeste 42 Oeste 0 -- -- 95
2019-12-12 20:00:00 6 22 Noroeste 41 Oeste 0 -- -- 95
2019-12-12 19:00:00 5.7 28 Oeste 51 Oeste 0 -- -- 93
2019-12-12 18:00:00 5.3 31 Oeste 53 Oeste 0.2 -- -- 92
2019-12-12 17:00:00 5 33 Oeste 53 Oeste 0.2 -- -- 91
2019-12-12 16:00:00 4.5 34 Oeste 54 Oeste 0.4 -- -- 90
2019-12-12 15:00:00 4 28 Oeste 57 Oeste 0 -- -- 89
2019-12-12 14:00:00 4.5 33 Oeste 51 Oeste 0 -- -- 87
2019-12-12 13:00:00 5.3 28 Oeste 53 Oeste 0 -- -- 85
2019-12-12 12:00:00 4.4 27 Oeste 47 Noroeste 0 -- -- 89
2019-12-12 11:00:00 4.2 28 Noroeste 43 Oeste 0 -- -- 88
2019-12-12 10:00:00 3.5 17 Oeste 29 Oeste 0 -- -- 91
2019-12-12 09:00:00 3.1 11 Noroeste 32 Noroeste 0 -- -- 91
2019-12-12 08:00:00 2.9 17 Noroeste 39 Noroeste 0 -- -- 91
2019-12-12 07:00:00 2.5 24 Noroeste 38 Noroeste 0 -- -- 92
2019-12-12 06:00:00 2.3 30 Noroeste 53 Noroeste 0 -- -- 91
2019-12-12 05:00:00 2.3 24 Noroeste 48 Noroeste 0 -- -- 89
2019-12-12 04:00:00 2.1 30 Noroeste 51 Noroeste 0 -- -- 90
2019-12-12 03:00:00 2.1 31 Noroeste 48 Noroeste 0 -- -- 90
2019-12-12 02:00:00 2.1 34 Noroeste 58 Noroeste 0 -- -- 90
2019-12-12 01:00:00 2 33 Noroeste 53 Noroeste 0 -- -- 89
2019-12-12 00:00:00 1.7 29 Noroeste 45 Noroeste 0 -- -- 87
2019-12-11 23:00:00 1.8 26 Noroeste 45 Noroeste 0 -- -- 84
2019-12-11 22:00:00 2 22 Noroeste 33 Noroeste 0 -- -- 82
2019-12-11 21:00:00 2.1 20 Noroeste 30 Oeste 0 -- -- 82
2019-12-11 20:00:00 2.9 22 Noroeste 37 Noroeste 0 -- -- 82
2019-12-11 19:00:00 2.6 20 Noroeste 32 Noroeste 0 -- -- 82
2019-12-11 18:00:00 3.4 22 Noroeste 39 Noroeste 0 -- -- 78
2019-12-11 17:00:00 5.2 23 Noroeste 42 Noroeste 0 -- -- 77
2019-12-11 16:00:00 5.8 24 Noroeste 37 Noroeste 0 -- -- 82
2019-12-11 15:00:00 5.2 26 Noroeste 37 Noroeste 0 -- -- 86
2019-12-11 14:00:00 3.9 18 Noroeste 40 Noroeste 0 -- -- 90
2019-12-11 13:00:00 2.9 27 Noroeste 45 Noroeste 0.8 -- -- 94
2019-12-11 12:00:00 3.3 28 Noroeste 40 Noroeste 0.4 -- -- 90
2019-12-11 11:00:00 3.8 20 Noroeste 30 Noroeste 0 -- -- 77
2019-12-11 10:00:00 3.6 21 Noroeste 32 Noroeste 0 -- -- 71
2019-12-11 09:00:00 2 2 Sur 10 Sur 0 -- -- 76
2019-12-11 08:00:00 1.8 3 Sudoeste 8 Sudeste 0 -- -- 76
2019-12-11 07:00:00 2 3 Sudoeste 9 Oeste 0 -- -- 76
2019-12-11 06:00:00 2.3 3 Sur 8 Sudeste 0 -- -- 74
2019-12-11 05:00:00 1.7 2 Norte 5 Norte 0 -- -- 79
2019-12-11 04:00:00 1.9 3 Sudoeste 9 Sudeste 0 -- -- 81
2019-12-11 03:00:00 2.8 2 Nordeste 10 Nordeste 0 -- -- 75
2019-12-11 02:00:00 3.2 4 Norte 12 Norte 0 -- -- 74
2019-12-11 01:00:00 4 2 Nordeste 8 Norte 0 -- -- 72
2019-12-11 00:00:00 4.5 2 Noroeste 11 Noroeste 0 -- -- 67
2019-12-10 23:00:00 5 3 Oeste 8 Nordeste 0 -- -- 63
2019-12-10 22:00:00 5.6 5 Este 12 Sudeste 0 -- -- 61
2019-12-10 21:00:00 4.2 6 Norte 24 Noroeste 0 -- -- 72
2019-12-10 20:00:00 6.4 17 Noroeste 32 Norte 0 -- -- 61
2019-12-10 19:00:00 5.4 6 Norte 12 Norte 0 -- -- 77
2019-12-10 18:00:00 6.8 3 Nordeste 14 Sur 0 -- -- 71
2019-12-10 17:00:00 10.3 3 Sudeste 14 Noroeste 0 -- -- 59
2019-12-10 16:00:00 10.3 12 Noroeste 21 Noroeste 0 -- -- 60
2019-12-10 15:00:00 10.4 8 Noroeste 20 Noroeste 0 -- -- 61
2019-12-10 14:00:00 8.8 9 Noroeste 17 Noroeste 0 -- -- 70
2019-12-10 13:00:00 5.7 6 Noroeste 15 Norte 0 -- -- 97
2019-12-10 12:00:00 1.4 12 Norte 19 Norte 0 -- -- 99
2019-12-10 11:00:00 -0.5 4 Norte 13 Nordeste 0 -- -- 98
2019-12-10 10:00:00 -1.3 0 Calma -- -- 0 -- -- 97
2019-12-10 09:00:00 -1.3 0 Calma 17 Norte 0 -- -- 98
2019-12-10 08:00:00 -1.2 13 Norte 21 Norte 0 -- -- 98
2019-12-10 07:00:00 -1 14 Norte 19 Norte 0 -- -- 97
2019-12-10 06:00:00 -0.9 3 Nordeste 9 Sudeste 0 -- -- 94
2019-12-10 05:00:00 0.1 3 Norte 21 Noroeste 0 -- -- 93
2019-12-10 04:00:00 -0.5 3 Norte 7 Noroeste 0 -- -- 94
2019-12-10 03:00:00 0.6 4 Oeste 22 Noroeste 0 -- -- 90
2019-12-10 02:00:00 1.2 3 Sudeste 14 Norte 0 -- -- 87
2019-12-10 01:00:00 2.2 10 Nordeste 18 Nordeste 0 -- -- 83
2019-12-10 00:00:00 3 15 Norte 26 Norte 0 -- -- 77
2019-12-09 23:00:00 3.4 10 Noroeste 32 Norte 0 -- -- 76
2019-12-09 22:00:00 4.8 22 Norte 30 Norte 0 -- -- 71
2019-12-09 21:00:00 4.6 5 Norte 25 Norte 0 -- -- 75
2019-12-09 20:00:00 5.5 21 Norte 29 Norte 0 -- -- 70
2019-12-09 19:00:00 5.7 15 Norte 42 Norte 0 -- -- 70
2019-12-09 18:00:00 5.9 13 Norte 29 Norte 0 -- -- 74
2019-12-09 17:00:00 8.2 18 Norte 40 Norte 0 -- -- 65
2019-12-09 16:00:00 8.6 25 Norte 35 Norte 0 -- -- 64
2019-12-09 15:00:00 8.4 17 Norte 31 Noroeste 0 -- -- 69
2019-12-09 14:00:00 7.7 18 Norte 27 Norte 0 -- -- 68
2019-12-09 13:00:00 6.7 14 Noroeste 25 Noroeste 0 -- -- 69
2019-12-09 12:00:00 5.5 15 Noroeste 28 Noroeste 0 -- -- 75
2019-12-09 11:00:00 4.7 17 Noroeste 36 Noroeste 0 -- -- 81
2019-12-09 10:00:00 3.6 27 Noroeste 38 Noroeste 0 -- -- 87
2019-12-09 09:00:00 2.8 19 Noroeste 46 Noroeste 0 -- -- 89
2019-12-09 08:00:00 3.1 22 Noroeste 35 Noroeste 0 -- -- 90
2019-12-09 07:00:00 2.2 0 Calma 18 Norte 0 -- -- 92
2019-12-09 06:00:00 3 10 Norte 28 Norte 0 -- -- 89
2019-12-09 05:00:00 3.7 14 Norte 35 Noroeste 0 -- -- 91
2019-12-09 04:00:00 4.6 21 Noroeste 36 Noroeste 0 -- -- 90
2019-12-09 03:00:00 5.2 15 Norte 39 Noroeste 0 -- -- 93
2019-12-09 02:00:00 4.8 8 Norte 31 Norte 0 -- -- 95
2019-12-09 01:00:00 5.2 21 Norte 29 Norte 0 -- -- 95
2019-12-09 00:00:00 5.5 10 Noroeste 24 Noroeste 0 -- -- 97
2019-12-08 23:00:00 5.7 13 Noroeste 30 Noroeste 0 -- -- 97
2019-12-08 22:00:00 5.9 14 Norte 27 Norte 0 -- -- 97
2019-12-08 21:00:00 6.1 10 Norte 21 Norte 0 -- -- 94
2019-12-08 20:00:00 6.3 10 Norte 17 Nordeste 0 -- -- 96
2019-12-08 19:00:00 6.4 7 Noroeste 17 Noroeste 1 -- -- 97
2019-12-08 18:00:00 6.3 6 Nordeste 11 Norte 0.8 -- -- 96
2019-12-08 17:00:00 6.7 3 Nordeste 24 Norte 0.4 -- -- 95
2019-12-08 16:00:00 6.9 17 Noroeste 27 Noroeste 0.6 -- -- 94
2019-12-08 15:00:00 7.8 16 Noroeste 39 Noroeste 0 -- -- 88
2019-12-08 14:00:00 8.6 12 Noroeste 35 Noroeste 0 -- -- 82
2019-12-08 13:00:00 8.2 17 Noroeste 28 Noroeste 0 -- -- 83
2019-12-08 12:00:00 7.5 4 Noroeste 17 Noroeste 0 -- -- 95
2019-12-08 11:00:00 3.4 3 Norte 8 Norte 0 -- -- 99
2019-12-08 10:00:00 1.2 2 Este 12 Norte 0 -- -- 99
2019-12-08 09:00:00 0.6 5 Norte 12 Norte 0 -- -- 100
2019-12-08 08:00:00 -0.5 0 Calma 12 Noroeste 0 -- -- 99
2019-12-08 07:00:00 -0.4 7 Norte 9 Nordeste 0 -- -- 98
2019-12-08 06:00:00 0 6 Norte 11 Nordeste 0 -- -- 98
2019-12-08 05:00:00 -0.7 6 Norte 10 Norte 0 -- -- 99
2019-12-08 04:00:00 0.5 4 Nordeste 10 Norte 0 -- -- 97
2019-12-08 03:00:00 0.4 4 Norte 8 Norte 0 -- -- 96
2019-12-08 02:00:00 1.8 8 Norte 11 Norte 0 -- -- 96
2019-12-08 01:00:00 1.7 9 Nordeste 13 Nordeste 0 -- -- 96
2019-12-08 00:00:00 2.2 7 Nordeste 10 Nordeste 0 -- -- 95
2019-12-07 23:00:00 2.5 8 Norte 10 Norte 0 -- -- 96
2019-12-07 22:00:00 3.1 5 Nordeste 10 Norte 0 -- -- 89
2019-12-07 21:00:00 4.7 0 Calma 6 Norte 0 -- -- 92
2019-12-07 20:00:00 4.5 0 Calma 13 Norte 0 -- -- 91
2019-12-07 19:00:00 6.7 6 Norte 15 Noroeste 0 -- -- 83
2019-12-07 18:00:00 8.3 5 Noroeste 7 Noroeste 0 -- -- 79
2019-12-07 17:00:00 11.4 3 Noroeste 10 Norte 0 -- -- 67
2019-12-07 16:00:00 10.8 7 Norte 13 Noroeste 0 -- -- 71
2019-12-07 15:00:00 10.2 8 Noroeste 12 Noroeste 0 -- -- 71
2019-12-07 14:00:00 7.1 6 Norte 14 Nordeste 0 -- -- 95
2019-12-07 13:00:00 6.8 2 Noroeste 5 Noroeste 0 -- -- 97
2019-12-07 12:00:00 3.2 5 Noroeste 8 Norte 0 -- -- 98
2019-12-07 11:00:00 1 5 Norte 9 Norte 0 -- -- 96
2019-12-07 10:00:00 -0.5 2 Nordeste 9 Nordeste 0 -- -- 97
2019-12-07 09:00:00 -2 6 Norte 9 Nordeste 0 -- -- 98
2019-12-07 08:00:00 -1.4 2 Norte 6 Norte 0 -- -- 98
2019-12-07 07:00:00 -0.9 4 Norte 10 Nordeste 0 -- -- 98
2019-12-07 06:00:00 -1.7 8 Norte 13 Nordeste 0 -- -- 99
2019-12-07 05:00:00 -0.6 10 Norte 12 Nordeste 0 -- -- 98
2019-12-07 04:00:00 -0.5 0 Calma 12 Nordeste 0 -- -- 99
2019-12-07 03:00:00 -0.6 0 Calma 10 Norte 0 -- -- 97
2019-12-07 02:00:00 0.6 8 Norte 17 Nordeste 0 -- -- 97
2019-12-07 01:00:00 0.8 4 Norte 13 Norte 0 -- -- 96
2019-12-07 00:00:00 1.2 4 Nordeste 5 Norte 0 -- -- 97
2019-12-06 23:00:00 1.8 0 Calma 9 Norte 0 -- -- 96
2019-12-06 22:00:00 3 8 Nordeste 12 Nordeste 0 -- -- 96
2019-12-06 21:00:00 3.2 3 Nordeste 5 Norte 0 -- -- 94
2019-12-06 20:00:00 4.5 0 Calma 6 Sudeste 0 -- -- 90
2019-12-06 19:00:00 5.5 5 Este 8 Este 0 -- -- 87
2019-12-06 18:00:00 7.1 3 Nordeste 8 Noroeste 0 -- -- 81
2019-12-06 17:00:00 9.5 6 Norte 14 Norte 0 -- -- 73
2019-12-06 16:00:00 9.3 11 Norte 17 Norte 0 -- -- 75
2019-12-06 15:00:00 9 14 Norte 21 Norte 0 -- -- 77
2019-12-06 14:00:00 10.8 4 Sudoeste 8 Sudoeste 0 -- -- 70
2019-12-06 13:00:00 9.3 5 Sur 14 Sur 0 -- -- 75
2019-12-06 12:00:00 7.6 6 Sur 12 Sur 0 -- -- 83
2019-12-06 11:00:00 4.8 7 Norte 12 Nordeste 0 -- -- 91
2019-12-06 10:00:00 3 7 Nordeste 12 Norte 0 -- -- 97
2019-12-06 09:00:00 2.1 2 Nordeste 10 Nordeste 0 -- -- 97
2019-12-06 08:00:00 1 8 Norte 12 Nordeste 0 -- -- 98
2019-12-06 07:00:00 1.3 4 Nordeste 10 Norte 0 -- -- 98
2019-12-06 06:00:00 0.2 9 Norte 13 Norte 0 -- -- 98
2019-12-06 05:00:00 0.4 5 Nordeste 9 Norte 0 -- -- 97
2019-12-06 04:00:00 1.3 5 Norte 8 Nordeste 0 -- -- 94
2019-12-06 03:00:00 2 0 Calma 8 Este 0 -- -- 90
2019-12-06 02:00:00 2.9 0 Calma 4 Este 0 -- -- 89
2019-12-06 01:00:00 3.6 0 Calma 6 Sur 0 -- -- 87
2019-12-06 00:00:00 4.7 4 Norte 9 Nordeste 0 -- -- 84
2019-12-05 23:00:00 4.6 6 Nordeste 21 Nordeste 0 -- -- 84
2019-12-05 22:00:00 4.5 16 Nordeste 19 Nordeste 0 -- -- 83
2019-12-05 21:00:00 4.1 9 Nordeste 23 Nordeste 0 -- -- 83
2019-12-05 20:00:00 5.2 17 Nordeste 22 Nordeste 0 -- -- 82
2019-12-05 19:00:00 5.7 14 Este 26 Nordeste 0 -- -- 81
2019-12-05 18:00:00 6.3 22 Nordeste 30 Nordeste 0 -- -- 78
2019-12-05 17:00:00 7.2 21 Nordeste 28 Nordeste 0 -- -- 78
2019-12-05 16:00:00 7.6 20 Nordeste 30 Nordeste 0 -- -- 79
2019-12-05 15:00:00 8.4 11 Nordeste 20 Nordeste 0 -- -- 77
2019-12-05 14:00:00 7.9 16 Nordeste 26 Nordeste 0 -- -- 77
2019-12-05 13:00:00 7.7 20 Nordeste 30 Nordeste 0 -- -- 79
2019-12-05 12:00:00 6.8 23 Nordeste 31 Nordeste 0 -- -- 81
2019-12-05 11:00:00 5.7 24 Nordeste 31 Nordeste 0 -- -- 86
2019-12-05 10:00:00 4.7 24 Nordeste 36 Nordeste 0 -- -- 89
2019-12-05 09:00:00 4 9 Norte 15 Norte 0 -- -- 91
2019-12-05 08:00:00 4.1 15 Nordeste 29 Nordeste 0 -- -- 88
2019-12-05 07:00:00 4.4 19 Nordeste 26 Nordeste 0 -- -- 85
2019-12-05 06:00:00 3.8 17 Norte 32 Nordeste 0 -- -- 89
2019-12-05 05:00:00 4.2 22 Nordeste 33 Nordeste 0 -- -- 87
2019-12-05 04:00:00 4.4 19 Norte 32 Nordeste 0 -- -- 87
2019-12-05 03:00:00 4.3 28 Nordeste 46 Nordeste 0 -- -- 87
2019-12-05 02:00:00 4.4 39 Nordeste 54 Nordeste 0 -- -- 85
2019-12-05 01:00:00 4.7 37 Nordeste 53 Nordeste 0 -- -- 82
2019-12-05 00:00:00 4.4 33 Nordeste 48 Nordeste 0 -- -- 82
2019-12-04 23:00:00 4.4 23 Nordeste 46 Nordeste 0 -- -- 81
2019-12-04 22:00:00 4.8 24 Nordeste 38 Nordeste 0 -- -- 84
2019-12-04 21:00:00 6.1 18 Nordeste 47 Nordeste 0 -- -- 75
2019-12-04 20:00:00 6.3 31 Nordeste 49 Nordeste 0 -- -- 79
2019-12-04 19:00:00 6.2 23 Nordeste 40 Nordeste 0 -- -- 81
2019-12-04 18:00:00 7.3 30 Nordeste 50 Nordeste 0 -- -- 76
2019-12-04 17:00:00 7 30 Nordeste 41 Nordeste 0 -- -- 76
2019-12-04 16:00:00 7.5 29 Nordeste 39 Nordeste 0 -- -- 72
2019-12-04 15:00:00 7.8 28 Nordeste 39 Nordeste 0 -- -- 73
2019-12-04 14:00:00 8.9 27 Este 39 Este 0 -- -- 71
2019-12-04 13:00:00 9.3 26 Este 38 Este 0 -- -- 68
2019-12-04 12:00:00 9.3 23 Este 35 Este 0 -- -- 69
2019-12-04 11:00:00 8.3 12 Este 24 Este 0 -- -- 75
2019-12-04 10:00:00 7.8 9 Este 13 Este 0 -- -- 78
2019-12-04 09:00:00 5.1 3 Nordeste 8 Nordeste 0 -- -- 87
2019-12-04 08:00:00 4.7 5 Nordeste 12 Norte 0 -- -- 89
2019-12-04 07:00:00 4.3 4 Norte 14 Nordeste 0 -- -- 89
2019-12-04 06:00:00 3.7 13 Nordeste 15 Nordeste 0 -- -- 92
2019-12-04 05:00:00 2.8 6 Nordeste 8 Nordeste 0 -- -- 94
2019-12-04 04:00:00 2.1 8 Norte 12 Nordeste 0 -- -- 93
2019-12-04 03:00:00 1.7 10 Nordeste 15 Norte 0 -- -- 93
2019-12-04 02:00:00 1.4 8 Nordeste 12 Nordeste 0.2 -- -- 93
2019-12-04 01:00:00 1.2 8 Norte 10 Norte 0 -- -- 92
2019-12-04 00:00:00 0.9 6 Nordeste 9 Norte 0 -- -- 91
2019-12-03 23:00:00 0.9 3 Este 9 Sudeste 0 -- -- 90
2019-12-03 22:00:00 0.1 9 Este 12 Este 0 -- -- 93
2019-12-03 21:00:00 0.1 8 Este 17 Este 0 -- -- 92
2019-12-03 20:00:00 0.5 5 Sudeste 11 Sudeste 0 -- -- 90
2019-12-03 19:00:00 1.2 4 Este 14 Sudeste 0 -- -- 88
2019-12-03 18:00:00 2.5 11 Sudeste 18 Sudeste 0 -- -- 83
2019-12-03 17:00:00 3 12 Sudeste 16 Sudeste 0 -- -- 81
2019-12-03 16:00:00 3.2 10 Sudeste 20 Sudeste 0 -- -- 78
2019-12-03 15:00:00 3.5 9 Sur -- -- -- -- -- 79
2019-12-03 14:00:00 3.5 12 Sudeste 23 Sur 0 -- -- 79
2019-12-03 13:00:00 3.5 14 Sur 18 Sur 0 -- -- 77
2019-12-03 12:00:00 3.2 5 Sur 15 Sur 0 -- -- 75
2019-12-03 11:00:00 2.1 6 Sur 13 Sur 0 -- -- 78
2019-12-03 10:00:00 1.3 6 Este 11 Este 0 -- -- 81
2019-12-03 09:00:00 -1.4 9 Sudeste 17 Este 0 -- -- 92
2019-12-03 08:00:00 -0.8 15 Este 25 Nordeste 0 -- -- 88
2019-12-03 07:00:00 -0.7 15 Nordeste 29 Nordeste 0 -- -- 87
2019-12-03 06:00:00 -0.3 20 Nordeste 34 Nordeste 0 -- -- 85
2019-12-03 05:00:00 0 25 Nordeste 37 Nordeste 0 -- -- 85
2019-12-03 04:00:00 -0.2 20 Nordeste 27 Nordeste 0 -- -- 86
2019-12-03 03:00:00 -0.4 13 Nordeste 20 Nordeste 0 -- -- 88
2019-12-03 02:00:00 -0.6 13 Nordeste 22 Nordeste 0 -- -- 88
2019-12-03 01:00:00 -0.3 15 Nordeste 19 Nordeste 0 -- -- 87
2019-12-03 00:00:00 0 15 Nordeste 26 Nordeste 0 -- -- 86
2019-12-02 23:00:00 0.7 20 Nordeste 30 Nordeste 0 -- -- 86
2019-12-02 22:00:00 1.3 24 Nordeste 42 Nordeste 0 -- -- 87
2019-12-02 21:00:00 1.8 27 Nordeste 46 Nordeste 0 -- -- 84
2019-12-02 20:00:00 2.7 30 Nordeste 44 Nordeste 0 -- -- 85
2019-12-02 19:00:00 3.1 32 Nordeste 50 Nordeste 0 -- -- 85
2019-12-02 18:00:00 4 34 Nordeste 45 Nordeste 0 -- -- 84
2019-12-02 17:00:00 4.9 33 Nordeste 48 Nordeste 0 -- -- 81
2019-12-02 16:00:00 5.9 40 Nordeste 50 Nordeste 0 -- -- 76
2019-12-02 15:00:00 6.4 39 Nordeste 49 Nordeste 0 -- -- 74
2019-12-02 14:00:00 5.7 38 Nordeste 51 Nordeste 0 -- -- 73
2019-12-02 13:00:00 6 43 Nordeste 55 Nordeste 0 -- -- 74
2019-12-02 12:00:00 6 37 Nordeste 49 Nordeste 0 -- -- 76
2019-12-02 11:00:00 5.4 38 Nordeste 48 Nordeste 0 -- -- 80
2019-12-02 10:00:00 4.3 36 Nordeste 48 Nordeste 0 -- -- 84
2019-12-02 09:00:00 3.7 32 Nordeste 46 Nordeste 0 -- -- 85
2019-12-02 08:00:00 3.2 26 Nordeste 41 Nordeste 0 -- -- 88
2019-12-02 07:00:00 3.5 29 Nordeste 45 Nordeste 0 -- -- 88
2019-12-02 06:00:00 3.4 27 Nordeste 43 Nordeste 0 -- -- 89
2019-12-02 05:00:00 3.6 33 Nordeste 48 Nordeste 0 -- -- 87
2019-12-02 04:00:00 3.7 34 Nordeste 48 Nordeste 0 -- -- 86
2019-12-02 03:00:00 4 32 Nordeste 41 Nordeste 0 -- -- 85
2019-12-02 02:00:00 3.7 19 Nordeste 36 Nordeste 0 -- -- 87
2019-12-02 01:00:00 3.9 26 Nordeste 33 Nordeste 0 -- -- 87
2019-12-02 00:00:00 3.6 22 Nordeste 30 Nordeste 0 -- -- 92
2019-12-01 23:00:00 3.3 16 Nordeste 19 Norte 0 -- -- 91
2019-12-01 22:00:00 2.9 8 Nordeste 14 Nordeste 0 -- -- 88
2019-12-01 21:00:00 3.5 10 Norte 20 Nordeste 0 -- -- 89
2019-12-01 20:00:00 4.8 12 Nordeste 17 Nordeste 0 -- -- 84
2019-12-01 19:00:00 5.4 12 Nordeste 18 Nordeste 0 -- -- 85
2019-12-01 18:00:00 6 16 Nordeste 22 Nordeste 0 -- -- 80
2019-12-01 17:00:00 7.6 3 Sudoeste 5 Sudoeste 0.2 -- -- 68
2019-12-01 16:00:00 10.1 2 Oeste 6 Norte 0 -- -- 60
2019-12-01 15:00:00 7.8 0 Calma 4 Sur 0 -- -- 71
2019-12-01 14:00:00 6.5 2 Norte 9 Norte 0 -- -- 79
2019-12-01 13:00:00 5.9 4 Nordeste 8 Norte 0 -- -- 85
2019-12-01 12:00:00 6.3 3 Nordeste 8 Norte 0 -- -- 82
2019-12-01 11:00:00 4.5 4 Norte 11 Norte 0 -- -- 92
2019-12-01 10:00:00 2.4 5 Nordeste 9 Nordeste 0 -- -- 96
2019-12-01 09:00:00 1.1 0 Calma 18 Sudoeste 0 -- -- 97
2019-12-01 08:00:00 1 11 Sudoeste 14 Sudoeste 0 -- -- 94
2019-12-01 07:00:00 1.9 6 Oeste 10 Oeste 0 -- -- 94
2019-12-01 06:00:00 2.7 6 Oeste 9 Oeste 0 -- -- 95
2019-12-01 05:00:00 2.2 3 Sur 12 Sudeste 0 -- -- 94
2019-12-01 04:00:00 3.2 9 Oeste 21 Noroeste 0 -- -- 90
2019-12-01 03:00:00 3.2 4 Noroeste 19 Norte 0 -- -- 89
2019-12-01 02:00:00 3.7 4 Norte 13 Noroeste 0 -- -- 88
2019-12-01 01:00:00 3.8 2 Noroeste 22 Oeste 0 -- -- 92
2019-12-01 00:00:00 4.5 15 Oeste 26 Oeste 0 -- -- 86
2019-11-30 23:00:00 4.5 12 Oeste 35 Oeste 0.6 -- -- 85
2019-11-30 22:00:00 6 24 Oeste 36 Oeste 0 -- -- 76
2019-11-30 21:00:00 6 19 Noroeste 45 Noroeste 1.2 -- -- 86
2019-11-30 20:00:00 6.8 25 Noroeste 41 Noroeste 0.2 -- -- 89
2019-11-30 19:00:00 8.6 17 Noroeste 48 Sudoeste 0.4 -- -- 93
2019-11-30 18:00:00 10.6 36 Sudoeste 52 Sudoeste 0 -- -- 83
2019-11-30 17:00:00 10.8 33 Sudoeste 53 Sudoeste 0 -- -- 82
2019-11-30 16:00:00 10.9 36 Oeste 54 Sudoeste 0 -- -- 83
2019-11-30 15:00:00 11.4 33 Sudoeste 50 Sudoeste 0 -- -- 81
2019-11-30 14:00:00 11.9 31 Sudoeste 44 Sudoeste 0 -- -- 81
2019-11-30 13:00:00 11.9 31 Oeste 40 Sudoeste 0 -- -- 83
2019-11-30 12:00:00 12.1 30 Sudoeste 44 Sudoeste 0 -- -- 84
2019-11-30 11:00:00 12.1 25 Sudoeste 35 Sudoeste 0 -- -- 85
2019-11-30 10:00:00 10 6 Sur 15 Oeste 0 -- -- 95
2019-11-30 09:00:00 9.2 8 Sur 10 Sur 0 -- -- 96
2019-11-30 08:00:00 8.9 8 Sur 16 Sur 0 -- -- 97
2019-11-30 07:00:00 8.8 9 Sur 14 Sur 0 -- -- 96
2019-11-30 06:00:00 8.7 5 Sur 11 Sudoeste 0 -- -- 96
2019-11-30 05:00:00 8.5 6 Sur 10 Sur 0 -- -- 96
2019-11-30 04:00:00 8.4 6 Sudoeste 17 Oeste 0 -- -- 96
2019-11-30 03:00:00 8.6 5 Sur 10 Sur 0 -- -- 97
2019-11-30 02:00:00 7.5 3 Oeste 6 Oeste 0 -- -- 98
2019-11-30 01:00:00 7.2 0 Calma 8 Oeste 0 -- -- 98
2019-11-30 00:00:00 7.1 2 Sur 4 Norte 0 -- -- 97
2019-11-29 23:00:00 7.3 3 Nordeste 6 Noroeste 0 -- -- 97
2019-11-29 22:00:00 7.8 3 Noroeste 5 Noroeste 0 -- -- 96
2019-11-29 21:00:00 8.4 5 Oeste 8 Noroeste 0 -- -- 93
2019-11-29 20:00:00 8.5 2 Sur 6 Sudeste 0 -- -- 92
2019-11-29 19:00:00 8.8 0 Calma 9 Sudoeste 0 -- -- 88
2019-11-29 18:00:00 10.1 8 Noroeste 13 Noroeste 0 -- -- 82
2019-11-29 17:00:00 11.4 5 Noroeste 26 Noroeste 0 -- -- 80
2019-11-29 16:00:00 13 14 Noroeste 22 Noroeste 0 -- -- 73
2019-11-29 15:00:00 11.4 13 Noroeste 23 Noroeste 0 -- -- 87
2019-11-29 14:00:00 11.3 9 Noroeste 22 Noroeste 0 -- -- 83
2019-11-29 13:00:00 11.6 10 Noroeste 18 Noroeste 0 -- -- 78
2019-11-29 12:00:00 10.9 12 Norte 18 Norte 0 -- -- 84
2019-11-29 11:00:00 10.8 12 Norte 21 Noroeste 0 -- -- 86
2019-11-29 10:00:00 10.9 13 Norte 21 Norte 0 -- -- 90
2019-11-29 09:00:00 9 10 Noroeste 18 Norte 0.2 -- -- 96
2019-11-29 08:00:00 8.5 4 Noroeste 8 Noroeste 0.2 -- -- 96
2019-11-29 07:00:00 8.5 4 Noroeste 21 Norte 0 -- -- 95
2019-11-29 06:00:00 8.9 7 Norte 12 Norte 0 -- -- 94
2019-11-29 05:00:00 9 8 Norte 21 Oeste 0 -- -- 94
2019-11-29 04:00:00 9.2 11 Noroeste 32 Noroeste 0 -- -- 93
2019-11-29 03:00:00 9.3 24 Noroeste 37 Noroeste 0 -- -- 92
2019-11-29 02:00:00 8.7 8 Noroeste 30 Oeste 0 -- -- 94
2019-11-29 01:00:00 8.1 18 Oeste 31 Oeste 0 -- -- 95
2019-11-29 00:00:00 8.4 12 Oeste 20 Oeste 0 -- -- 91
2019-11-28 23:00:00 8.4 13 Oeste 24 Oeste 0 -- -- 90
2019-11-28 22:00:00 8.4 15 Oeste 32 Oeste 0 -- -- 89
2019-11-28 21:00:00 8 21 Oeste 34 Oeste 0 -- -- 91
2019-11-28 20:00:00 8 24 Oeste 37 Oeste 0.2 -- -- 90
2019-11-28 19:00:00 8.2 25 Oeste 41 Oeste 0 -- -- 87
2019-11-28 18:00:00 8.4 24 Oeste 42 Oeste 0 -- -- 85
2019-11-28 17:00:00 9 31 Oeste 43 Oeste 0 -- -- 82
2019-11-28 16:00:00 9 28 Oeste 43 Oeste 0 -- -- 83
2019-11-28 15:00:00 8.9 31 Sudoeste 40 Sudoeste 0 -- -- 84
2019-11-28 14:00:00 9.3 30 Sudoeste 45 Oeste 0 -- -- 83
2019-11-28 13:00:00 10.2 32 Oeste 42 Oeste 0 -- -- 81
2019-11-28 12:00:00 10.2 23 Oeste 38 Noroeste 0 -- -- 82
2019-11-28 11:00:00 8.9 27 Oeste 42 Oeste 0 -- -- 85
2019-11-28 10:00:00 7.5 7 Oeste 26 Oeste 0 -- -- 90
2019-11-28 09:00:00 7 13 Oeste 27 Oeste 0 -- -- 90
2019-11-28 08:00:00 7.3 21 Oeste 31 Oeste 0 -- -- 87
2019-11-28 07:00:00 7.7 16 Noroeste 37 Noroeste 0 -- -- 85
2019-11-28 06:00:00 7.9 22 Noroeste 40 Noroeste 0 -- -- 83
2019-11-28 05:00:00 7.8 32 Noroeste 46 Noroeste 0 -- -- 85
2019-11-28 04:00:00 7.4 26 Noroeste 47 Noroeste 0 -- -- 89
2019-11-28 03:00:00 7.3 33 Noroeste 48 Noroeste 0 -- -- 89
2019-11-28 02:00:00 7.6 34 Noroeste 51 Noroeste 0 -- -- 85
2019-11-28 01:00:00 7.5 32 Noroeste 52 Noroeste 0 -- -- 85
2019-11-28 00:00:00 8 25 Noroeste 40 Noroeste 0 -- -- 82
2019-11-27 23:00:00 7.8 21 Noroeste 46 Noroeste 0 -- -- 81
2019-11-27 22:00:00 8 17 Oeste 36 Oeste 0 -- -- 78
2019-11-27 21:00:00 8.2 23 Oeste 36 Oeste 0 -- -- 77
2019-11-27 20:00:00 8 15 Oeste 32 Oeste 0 -- -- 85
2019-11-27 19:00:00 8.3 14 Oeste 27 Oeste 0 -- -- 83
2019-11-27 18:00:00 8.9 14 Oeste 29 Noroeste 0 -- -- 76
2019-11-27 17:00:00 9.8 24 Noroeste 48 Noroeste 0 -- -- 61
2019-11-27 16:00:00 10.3 29 Noroeste 43 Noroeste 0 -- -- 65
2019-11-27 15:00:00 10.4 27 Noroeste 39 Noroeste 0 -- -- 66
2019-11-27 14:00:00 9.1 26 Noroeste 37 Noroeste 0 -- -- 70
2019-11-27 06:00:00 -- -- -- -- -- -- -- -- --
2019-11-27 05:00:00 -- -- -- -- -- -- -- -- --
2019-11-27 04:00:00 -- -- -- -- -- -- -- -- --
2019-11-27 03:00:00 -- -- -- -- -- -- -- -- --
2019-11-27 02:00:00 9.6 39 Oeste 56 Oeste 0.4 -- -- 82
2019-11-27 01:00:00 9.8 34 Oeste 51 Oeste 0 -- -- 90
2019-11-27 00:00:00 10.6 36 Oeste 55 Oeste 0 -- -- 86
2019-11-26 23:00:00 10.8 30 Oeste 53 Oeste 0 -- -- 88
2019-11-26 22:00:00 11 29 Oeste 53 Oeste 0 -- -- 89
2019-11-26 21:00:00 10.7 35 Sudoeste 63 Sudoeste 0 -- -- 90
2019-11-26 20:00:00 10.9 39 Sudoeste 69 Sudoeste 0 -- -- 85
2019-11-26 19:00:00 10.9 44 Sudoeste 68 Sudoeste 0 -- -- 87
2019-11-26 18:00:00 10.7 42 Sudoeste 67 Sudoeste 0 -- -- 87
2019-11-26 17:00:00 10.8 37 Sudoeste 56 Sudoeste 0 -- -- 84
2019-11-26 16:00:00 11.4 36 Sudoeste 57 Sudoeste 0 -- -- 82
2019-11-26 15:00:00 11.1 39 Oeste 57 Oeste 0 -- -- 84
2019-11-26 14:00:00 11 31 Oeste 47 Oeste 0 -- -- 84
2019-11-26 13:00:00 11.4 24 Oeste 42 Oeste 0 -- -- 85
2019-11-26 12:00:00 11.7 21 Sudoeste 28 Oeste 0 -- -- 82
2019-11-26 11:00:00 9.4 22 Oeste 31 Oeste 0 -- -- 89
2019-11-26 10:00:00 7.4 3 Sur 7 Sudoeste 0 -- -- 93
2019-11-26 09:00:00 6.7 3 Sudoeste 13 Oeste 0 -- -- 95
2019-11-26 08:00:00 6.2 6 Sudoeste 12 Sur 0 -- -- 95
2019-11-26 07:00:00 6.5 9 Sudoeste 15 Sudoeste 0 -- -- 94
2019-11-26 06:00:00 6.5 6 Sur 15 Sudoeste 0 -- -- 94
2019-11-26 05:00:00 7 9 Sudoeste 13 Oeste 0 -- -- 92
2019-11-26 04:00:00 7.5 3 Oeste 8 Sudoeste 0 -- -- 92
2019-11-26 03:00:00 7.7 4 Oeste 14 Noroeste 0 -- -- 90
2019-11-26 02:00:00 8 5 Oeste 12 Noroeste 0 -- -- 89
2019-11-26 01:00:00 7.9 3 Sudoeste 22 Noroeste 0 -- -- 89
2019-11-26 00:00:00 7.7 5 Sur 14 Noroeste 0 -- -- 89
2019-11-25 23:00:00 8.1 7 Noroeste 20 Noroeste 0 -- -- 86
2019-11-25 22:00:00 8.3 7 Norte 17 Oeste 0 -- -- 85
2019-11-25 21:00:00 8.8 9 Nordeste 20 Noroeste 0 -- -- 82
2019-11-25 20:00:00 8.9 14 Noroeste 27 Noroeste 0 -- -- 81
2019-11-25 19:00:00 9.6 18 Noroeste 28 Noroeste 0 -- -- 82
2019-11-25 18:00:00 9.6 12 Noroeste 20 Noroeste 0 -- -- 86
2019-11-25 17:00:00 10.4 12 Noroeste 27 Norte 0 -- -- 83
2019-11-25 16:00:00 10.8 20 Noroeste 32 Noroeste 0 -- -- 77
2019-11-25 15:00:00 11.7 14 Noroeste 39 Noroeste 0 -- -- 77
2019-11-25 14:00:00 11.1 21 Noroeste 37 Noroeste 0.2 -- -- 77
2019-11-25 13:00:00 10.1 23 Noroeste 34 Noroeste 0 -- -- 88
2019-11-25 12:00:00 10.3 14 Noroeste 28 Noroeste 0 -- -- 88
2019-11-25 11:00:00 9.8 16 Noroeste 27 Noroeste 0 -- -- 87
2019-11-25 10:00:00 9 15 Noroeste 24 Noroeste 0 -- -- 90
2019-11-25 09:00:00 8.5 15 Noroeste 23 Noroeste 0 -- -- 91
2019-11-25 08:00:00 8.1 14 Noroeste 23 Noroeste 0 -- -- 93
2019-11-25 07:00:00 6.6 7 Oeste 11 Oeste 0 -- -- 97
2019-11-25 06:00:00 6.1 4 Sudoeste 10 Sudoeste 0 -- -- 97
2019-11-25 05:00:00 5.9 5 Oeste 14 Oeste 0.4 -- -- 97
2019-11-25 04:00:00 5.6 12 Oeste 20 Oeste 0.2 -- -- 97
2019-11-25 03:00:00 4.6 4 Sudoeste 11 Sudoeste 0.4 -- -- 96
2019-11-25 02:00:00 4.6 8 Sur 16 Oeste 0.8 -- -- 95
2019-11-25 01:00:00 5.1 9 Oeste 18 Oeste 0 -- -- 92
2019-11-25 00:00:00 5 4 Sudoeste 19 Noroeste 0 -- -- 94
2019-11-24 23:00:00 5.3 15 Noroeste 24 Norte 0 -- -- 91
2019-11-24 22:00:00 4.7 10 Noroeste 23 Noroeste 0 -- -- 88
2019-11-24 21:00:00 5.1 14 Noroeste 24 Noroeste 0 -- -- 84
2019-11-24 20:00:00 5.2 6 Norte 22 Noroeste 0 -- -- 81
2019-11-24 19:00:00 5.1 5 Norte 21 Noroeste 0 -- -- 78
2019-11-24 18:00:00 5.3 3 Norte 27 Noroeste 0 -- -- 75
2019-11-24 17:00:00 5.5 17 Noroeste 41 Noroeste 0 -- -- 75
2019-11-24 16:00:00 5.5 23 Noroeste 40 Noroeste 0 -- -- 72
2019-11-24 15:00:00 5.7 23 Norte 48 Norte 0 -- -- 77
2019-11-24 14:00:00 4.6 36 Norte 50 Noroeste 0 -- -- 80
2019-11-24 13:00:00 4.7 30 Noroeste 40 Noroeste 0 -- -- 83
2019-11-24 12:00:00 4.2 25 Noroeste 37 Noroeste 0 -- -- 83
2019-11-24 11:00:00 3.6 26 Norte 41 Noroeste 0 -- -- 85
2019-11-24 10:00:00 3.3 23 Norte 40 Noroeste 0 -- -- 87
2019-11-24 09:00:00 1.9 20 Norte 31 Noroeste 0 -- -- 90
2019-11-24 08:00:00 1.6 10 Noroeste 37 Noroeste 0 -- -- 90
2019-11-24 07:00:00 2.3 27 Noroeste 37 Noroeste 0 -- -- 87
2019-11-24 06:00:00 2.4 24 Noroeste 40 Noroeste 0 -- -- 87
2019-11-24 05:00:00 2.2 23 Noroeste 37 Noroeste 0 -- -- 89
2019-11-24 04:00:00 2.7 22 Norte 46 Noroeste 0 -- -- 87
2019-11-24 03:00:00 3 33 Noroeste 46 Noroeste 0 -- -- 86
2019-11-24 02:00:00 3.1 23 Noroeste 50 Noroeste 0 -- -- 86
2019-11-24 01:00:00 3.7 32 Noroeste 54 Noroeste 0 -- -- 82
2019-11-24 00:00:00 4 30 Norte 45 Norte 0 -- -- 82
2019-11-23 23:00:00 4.2 32 Norte 46 Norte 0 -- -- 81
2019-11-23 22:00:00 4.5 29 Norte 46 Norte 0 -- -- 80
2019-11-23 21:00:00 4.8 24 Norte 40 Norte 0 -- -- 79
2019-11-23 20:00:00 5 26 Norte 44 Norte 0 -- -- 79
2019-11-23 19:00:00 5.3 28 Norte 55 Norte 0 -- -- 76
2019-11-23 18:00:00 5.7 30 Norte 46 Norte 0 -- -- 74
2019-11-23 17:00:00 6.9 32 Noroeste 53 Noroeste 0 -- -- 68
2019-11-23 16:00:00 7.8 29 Noroeste 60 Noroeste 0 -- -- 63
2019-11-23 15:00:00 7.5 38 Noroeste 58 Noroeste 0 -- -- 68
2019-11-23 14:00:00 6.5 36 Noroeste 53 Noroeste 0 -- -- 69
2019-11-23 13:00:00 5.8 30 Noroeste 60 Noroeste 0 -- -- 72
2019-11-23 12:00:00 5.5 40 Noroeste 63 Noroeste 0 -- -- 76
2019-11-23 11:00:00 4.1 39 Noroeste 58 Noroeste 0 -- -- 81
2019-11-23 10:00:00 3.7 37 Noroeste 63 Noroeste 0 -- -- 86
2019-11-23 09:00:00 3.5 42 Noroeste 63 Noroeste 0 -- -- 86
2019-11-23 08:00:00 3.5 43 Noroeste 62 Noroeste 0 -- -- 90
2019-11-23 07:00:00 3.4 26 Noroeste 54 Noroeste 0 -- -- 91
2019-11-23 06:00:00 3.3 28 Noroeste 58 Oeste 0 -- -- 88
2019-11-23 05:00:00 4.2 28 Noroeste 48 Noroeste 0 -- -- 88
2019-11-23 04:00:00 5 29 Noroeste 59 Noroeste 0.2 -- -- 81
2019-11-23 03:00:00 5.3 23 Noroeste 39 Noroeste 0 -- -- 84
2019-11-23 02:00:00 5.7 26 Noroeste 53 Noroeste 0 -- -- 81
2019-11-23 01:00:00 6.4 28 Oeste 54 Oeste 0 -- -- 84
2019-11-23 00:00:00 5.9 14 Oeste 35 Oeste 0 -- -- 81
2019-11-22 23:00:00 6.2 24 Oeste 42 Noroeste 0 -- -- 81
2019-11-22 22:00:00 6.4 27 Noroeste 43 Oeste 0 -- -- 85
2019-11-22 21:00:00 7 24 Noroeste 54 Noroeste 2 -- -- 86
2019-11-22 20:00:00 7.2 28 Noroeste 57 Noroeste 1.4 -- -- 87
2019-11-22 19:00:00 9.5 32 Sudoeste 50 Sudoeste 0 -- -- 88
2019-11-22 18:00:00 9.1 24 Sudoeste 51 Sudoeste 0 -- -- 90
2019-11-22 17:00:00 9 36 Sudoeste 54 Sudoeste 0.2 -- -- 90
2019-11-22 16:00:00 8.5 30 Sudoeste 51 Sudoeste 0.4 -- -- 89
2019-11-22 15:00:00 8.2 30 Sudoeste 52 Sudoeste 0 -- -- 89
2019-11-22 14:00:00 8 36 Sudoeste 52 Sudoeste 0.2 -- -- 88
2019-11-22 13:00:00 7.9 36 Sudoeste 53 Sudoeste 0 -- -- 87
2019-11-22 12:00:00 7.3 38 Sudoeste 49 Sudoeste 1.2 -- -- 90
2019-11-22 11:00:00 6.2 28 Sudoeste 38 Sudoeste 0.6 -- -- 94
2019-11-22 10:00:00 5 27 Sur 33 Sur 0.8 -- -- 95
2019-11-22 09:00:00 4.4 23 Sur 35 Sur 0 -- -- 95
2019-11-22 08:00:00 3.9 26 Sur 33 Sur 0 -- -- 94
2019-11-22 07:00:00 3.7 22 Sur 28 Sur 0 -- -- 95
2019-11-22 06:00:00 3.6 16 Sur 21 Sur 0 -- -- 96
2019-11-22 05:00:00 3.1 13 Sur 22 Sur 0 -- -- 97
2019-11-22 04:00:00 3.1 13 Sur 23 Sur 0.2 -- -- 98
2019-11-22 03:00:00 1.8 12 Sur 20 Sur 0 -- -- 98
2019-11-22 02:00:00 1.5 12 Sur 14 Sur 0 -- -- 98
2019-11-22 01:00:00 2.2 5 Sur 16 Sur 0 -- -- 97
2019-11-22 00:00:00 2.8 11 Sur 17 Sur 0 -- -- 96
2019-11-21 23:00:00 2.1 10 Sur 13 Sur 0 -- -- 95
2019-11-21 22:00:00 2.8 5 Sur 14 Oeste 0 -- -- 94
2019-11-21 21:00:00 3.2 2 Sur 9 Sur 0 -- -- 94
2019-11-21 20:00:00 3.6 3 Sur 9 Sudoeste 0 -- -- 93
2019-11-21 19:00:00 4.4 7 Sur 13 Sudoeste 0 -- -- 92
2019-11-21 18:00:00 4.7 4 Sudoeste 15 Oeste 0 -- -- 92
2019-11-21 17:00:00 5.2 8 Oeste 40 Oeste 0.8 -- -- 88
2019-11-21 16:00:00 7.4 12 Oeste 31 Oeste 0 -- -- 76
2019-11-21 15:00:00 7.2 19 Oeste 38 Oeste 0 -- -- 78
2019-11-21 14:00:00 7 27 Oeste 38 Oeste 0 -- -- 81
2019-11-21 13:00:00 5.9 26 Oeste 37 Oeste 0 -- -- 87
2019-11-21 12:00:00 5.4 26 Oeste 36 Oeste 0 -- -- 85
2019-11-21 11:00:00 4.8 20 Oeste 28 Sudoeste 0 -- -- 88
2019-11-21 10:00:00 3.3 14 Sudoeste 19 Sudoeste 0 -- -- 91
2019-11-21 09:00:00 2.6 11 Sudoeste 19 Oeste 0 -- -- 92
2019-11-21 08:00:00 -- -- -- -- -- -- -- -- --
2019-11-21 07:00:00 -- -- -- -- -- -- -- -- --
2019-11-21 06:00:00 -- -- -- -- -- -- -- -- --
2019-11-21 05:00:00 -- -- -- -- -- -- -- -- --
2019-11-21 04:00:00 -- -- -- -- -- -- -- -- --
2019-11-21 03:00:00 -- -- -- -- -- -- -- -- --
2019-11-21 02:00:00 -- -- -- -- -- -- -- -- --
2019-11-21 01:00:00 -- -- -- -- -- -- -- -- --
2019-11-21 00:00:00 -- -- -- -- -- -- -- -- --
2019-11-20 23:00:00 -- -- -- -- -- -- -- -- --
2019-11-20 22:00:00 -- -- -- -- -- -- -- -- --
2019-11-20 21:00:00 -- -- -- -- -- -- -- -- --
2019-11-20 20:00:00 -- -- -- -- -- -- -- -- --
2019-11-20 19:00:00 3.5 17 Oeste 26 Oeste 0.2 -- -- 88
2019-11-20 18:00:00 4.7 12 Oeste 33 Oeste 0 -- -- 81
2019-11-20 17:00:00 6.3 17 Oeste 28 Sudoeste 0 -- -- 72
2019-11-20 16:00:00 7.7 23 Sudoeste 35 Sudoeste 0 -- -- 69
2019-11-20 15:00:00 6.8 18 Sudoeste 27 Sudoeste 0 -- -- 74
2019-11-20 14:00:00 6.6 14 Sudoeste 22 Sudoeste 0 -- -- 77
2019-11-20 13:00:00 6 12 Sudoeste 17 Oeste 0 -- -- 78
2019-11-20 12:00:00 4.1 8 Sur 11 Sur 0 -- -- 85
2019-11-20 11:00:00 2.8 6 Sur 8 Sur 0 -- -- 88
2019-11-20 10:00:00 2.8 0 Calma 3 Este 0 -- -- 91
2019-11-20 09:00:00 -0.1 0 Calma 6 Sur 0 -- -- 94
2019-11-20 08:00:00 -0.5 2 Sudeste 4 Sur 0 -- -- 98
2019-11-20 07:00:00 -0.8 0 Calma 3 Sur 0 -- -- 97
2019-11-20 06:00:00 -1 0 Calma 5 Sur 0 -- -- 96
2019-11-20 05:00:00 -0.3 4 Sur 5 Sur 0 -- -- 95
2019-11-20 04:00:00 0 0 Calma 3 Sur 0 -- -- 95
2019-11-20 03:00:00 -0.5 3 Sur 5 Sudeste 0 -- -- 95
2019-11-20 02:00:00 0.1 0 Calma 6 Noroeste 0 -- -- 92
2019-11-20 01:00:00 1.3 5 Noroeste 8 Noroeste 0 -- -- 90
2019-11-20 00:00:00 0.1 0 Calma 3 Sudoeste 0 -- -- 90
2019-11-19 23:00:00 1.5 0 Calma 5 Sudoeste 0 -- -- 88
2019-11-19 22:00:00 1.3 0 Calma 8 Oeste 0 -- -- 87
2019-11-19 21:00:00 1.9 2 Oeste 10 Norte 0 -- -- 84
2019-11-19 20:00:00 2.5 2 Nordeste 9 Noroeste 0 -- -- 83
2019-11-19 19:00:00 3 6 Norte 20 Noroeste 0 -- -- 80
2019-11-19 18:00:00 4.4 13 Noroeste 23 Noroeste 0 -- -- 73
2019-11-19 17:00:00 6.3 6 Noroeste 26 Noroeste 0 -- -- 66
2019-11-19 16:00:00 7.4 14 Noroeste 26 Norte 0 -- -- 61
2019-11-19 15:00:00 6.6 22 Norte 30 Noroeste 0 -- -- 64
2019-11-19 14:00:00 6.4 15 Noroeste 31 Norte 0 -- -- 69
2019-11-19 13:00:00 5.4 14 Noroeste 28 Noroeste 0 -- -- 75
2019-11-19 12:00:00 3.6 12 Noroeste 20 Noroeste 0 -- -- 79
2019-11-19 11:00:00 1.9 12 Norte 16 Nordeste 0 -- -- 81
2019-11-19 10:00:00 0.2 11 Nordeste 16 Nordeste 0 -- -- 87
2019-11-19 09:00:00 -0.3 8 Nordeste 17 Nordeste 0 -- -- 88
2019-11-19 08:00:00 -3 3 Nordeste 8 Nordeste 0 -- -- 93
2019-11-19 07:00:00 -2.1 6 Nordeste 14 Nordeste 0 -- -- 91
2019-11-19 06:00:00 -1.8 8 Nordeste 15 Nordeste 0 -- -- 92
2019-11-19 05:00:00 -1.5 0 Calma 10 Norte 0 -- -- 89
2019-11-19 04:00:00 -1.4 6 Noroeste 10 Oeste 0 -- -- 88
2019-11-19 03:00:00 -1.4 3 Sudoeste 10 Nordeste 0 -- -- 90
2019-11-19 02:00:00 -0.7 7 Nordeste 17 Norte 0 -- -- 87
2019-11-19 01:00:00 1.4 9 Norte 17 Norte 0 -- -- 80
2019-11-19 00:00:00 1.9 13 Norte 21 Norte 0 -- -- 79
2019-11-18 23:00:00 1.8 14 Norte 33 Norte 0 -- -- 78
2019-11-18 22:00:00 1.3 28 Norte 36 Norte 0 -- -- 80
2019-11-18 21:00:00 1.4 22 Norte 35 Norte 0 -- -- 78
2019-11-18 20:00:00 1.2 13 Norte 36 Nordeste 0 -- -- 80
2019-11-18 19:00:00 1.9 9 Norte 26 Norte 0 -- -- 78
2019-11-18 18:00:00 3.3 26 Nordeste 39 Nordeste 0 -- -- 73
2019-11-18 17:00:00 4.8 33 Norte 51 Norte 0 -- -- 69
2019-11-18 16:00:00 5.2 37 Nordeste 60 Norte 0 -- -- 69
2019-11-18 15:00:00 5.7 40 Norte 54 Norte 0 -- -- 67
2019-11-18 14:00:00 4.5 32 Nordeste 44 Norte 0 -- -- 74
2019-11-18 13:00:00 5.4 26 Norte 48 Norte 0 -- -- 69
2019-11-18 12:00:00 4.8 38 Norte 59 Norte 0 -- -- 72
2019-11-18 11:00:00 4.6 37 Norte 52 Norte 0 -- -- 69
2019-11-18 10:00:00 3.7 37 Nordeste 56 Norte 0 -- -- 75
2019-11-18 09:00:00 2.5 27 Norte 40 Norte 0 -- -- 78
2019-11-18 08:00:00 0.8 29 Norte 46 Norte 0 -- -- 91
2019-11-18 07:00:00 1.3 18 Norte 27 Norte 0 -- -- 87
2019-11-18 06:00:00 1.8 23 Norte 37 Norte 0 -- -- 86
2019-11-18 05:00:00 2.5 26 Norte 37 Norte 0 -- -- 88
2019-11-18 04:00:00 1 9 Norte 25 Norte 0 -- -- 95
2019-11-18 03:00:00 1 14 Norte 26 Noroeste 0 -- -- 96
2019-11-18 02:00:00 1.4 19 Noroeste 34 Noroeste 0 -- -- 95
2019-11-18 01:00:00 2.2 27 Noroeste 37 Noroeste 0 -- -- 94
2019-11-18 00:00:00 3 14 Noroeste 22 Noroeste 0 -- -- 93
2019-11-17 23:00:00 2.5 0 Calma 9 Sur 0 -- -- 97
2019-11-17 22:00:00 3.4 6 Sudeste 16 Sur 0 -- -- 97
2019-11-17 21:00:00 3.1 13 Sur 17 Sur 0 -- -- 97
2019-11-17 20:00:00 3.5 8 Sur 12 Sur 0.2 -- -- 96
2019-11-17 19:00:00 3.8 10 Sudoeste 19 Oeste 0 -- -- 95
2019-11-17 18:00:00 3.5 10 Sudoeste 18 Oeste 0 -- -- 96
2019-11-17 17:00:00 3.5 11 Oeste 26 Oeste 0 -- -- 95
2019-11-17 16:00:00 3.4 18 Oeste 32 Oeste 0.2 -- -- 94
2019-11-17 15:00:00 3.9 16 Oeste 32 Oeste 0.8 -- -- 92
2019-11-17 14:00:00 4.1 20 Oeste 31 Oeste 0.2 -- -- 90
2019-11-17 13:00:00 3.8 13 Oeste 25 Oeste 0 -- -- 87
2019-11-17 12:00:00 3.3 16 Oeste 26 Oeste 0 -- -- 90
2019-11-17 11:00:00 3.2 17 Oeste 29 Oeste 0 -- -- 91
2019-11-17 10:00:00 2.4 11 Noroeste 39 Noroeste 0 -- -- 93
2019-11-17 09:00:00 1.6 29 Noroeste 41 Noroeste 0 -- -- 94
2019-11-17 08:00:00 1.1 27 Noroeste 47 Noroeste 0 -- -- 94
2019-11-17 07:00:00 0.8 13 Noroeste 30 Noroeste 0 -- -- 93
2019-11-17 06:00:00 0.5 20 Noroeste 31 Oeste 0 -- -- 92
2019-11-17 05:00:00 0.2 20 Noroeste 35 Noroeste 0 -- -- 92
2019-11-17 04:00:00 -0.1 18 Noroeste 30 Noroeste 0 -- -- 92
2019-11-17 03:00:00 -0.3 9 Noroeste 19 Noroeste 0 -- -- 92
2019-11-17 02:00:00 -0.5 5 Norte 22 Noroeste 0 -- -- 91
2019-11-17 01:00:00 0.3 15 Noroeste 32 Noroeste 0 -- -- 85
2019-11-17 00:00:00 1.1 17 Noroeste 26 Noroeste 0 -- -- 83
2019-11-16 23:00:00 1.4 14 Noroeste 21 Noroeste 0 -- -- 84
2019-11-16 22:00:00 2.6 16 Noroeste 35 Noroeste 0 -- -- 83
2019-11-16 21:00:00 2.3 14 Noroeste 27 Noroeste 0 -- -- 85
2019-11-16 20:00:00 3 18 Noroeste 30 Noroeste 0 -- -- 81
2019-11-16 19:00:00 3 12 Noroeste 26 Noroeste 0 -- -- 81
2019-11-16 18:00:00 2.4 3 Oeste 19 Noroeste 0 -- -- 84
2019-11-16 17:00:00 3.3 13 Noroeste 42 Noroeste 0 -- -- 79
2019-11-16 16:00:00 3.4 26 Noroeste 42 Noroeste 0 -- -- 77
2019-11-16 15:00:00 2.7 24 Noroeste 41 Noroeste 0 -- -- 81
2019-11-16 14:00:00 1.5 18 Noroeste 33 Noroeste 0 -- -- 86
2019-11-16 13:00:00 1.2 19 Noroeste 37 Noroeste 0 -- -- 86
2019-11-16 12:00:00 1.9 20 Noroeste 34 Noroeste 0 -- -- 86
2019-11-16 11:00:00 0.7 10 Norte 30 Noroeste 0 -- -- 89
2019-11-16 10:00:00 -0.9 12 Noroeste 26 Noroeste 0 -- -- 93
2019-11-16 09:00:00 -1.5 15 Noroeste 24 Noroeste 0 -- -- 95
2019-11-16 08:00:00 -1.8 10 Noroeste 23 Noroeste 0 -- -- 97
2019-11-16 07:00:00 -2 3 Norte 12 Norte 0 -- -- 97
2019-11-16 06:00:00 -1.4 12 Norte 20 Norte 0 -- -- 98
2019-11-16 05:00:00 -1 12 Norte 18 Norte 0 -- -- 97
2019-11-16 04:00:00 -0.9 3 Noroeste 13 Norte 0 -- -- 97
2019-11-16 03:00:00 -0.1 9 Norte 18 Norte 0 -- -- 95
2019-11-16 02:00:00 0.4 10 Noroeste 15 Noroeste 0 -- -- 96
2019-11-16 01:00:00 0.7 2 Noroeste 13 Norte 0 -- -- 96
2019-11-16 00:00:00 0.9 8 Norte 19 Noroeste 0 -- -- 95
2019-11-15 23:00:00 1 13 Noroeste 26 Noroeste 0 -- -- 94
2019-11-15 22:00:00 1.1 18 Noroeste 31 Noroeste 0 -- -- 93
2019-11-15 21:00:00 1.1 12 Noroeste 24 Norte 0 -- -- 94
2019-11-15 20:00:00 1.6 14 Noroeste 26 Noroeste 0 -- -- 89
2019-11-15 19:00:00 2.5 12 Noroeste 28 Norte 0 -- -- 85
2019-11-15 18:00:00 3.1 18 Noroeste 32 Noroeste 0 -- -- 81
2019-11-15 17:00:00 4.1 24 Noroeste 45 Norte 0 -- -- 73
2019-11-15 16:00:00 4.6 31 Noroeste 54 Noroeste 0 -- -- 72
2019-11-15 15:00:00 3.5 36 Noroeste 55 Noroeste 0 -- -- 78
2019-11-15 14:00:00 3.1 32 Noroeste 46 Noroeste 0 -- -- 82
2019-11-15 13:00:00 3.1 31 Noroeste 45 Noroeste 0 -- -- 83
2019-11-15 12:00:00 2.3 28 Noroeste 46 Noroeste 0 -- -- 86
2019-11-15 11:00:00 1.6 34 Noroeste 46 Noroeste 0.2 -- -- 90
2019-11-15 10:00:00 1 27 Noroeste 43 Noroeste 0.2 -- -- 91
2019-11-15 09:00:00 0.9 27 Noroeste 39 Noroeste 0.2 -- -- 91
2019-11-15 08:00:00 0.6 24 Noroeste 35 Noroeste 0 -- -- 91
2019-11-15 07:00:00 0.5 14 Noroeste 23 Noroeste 0 -- -- 91
2019-11-15 06:00:00 0.3 9 Noroeste 32 Noroeste 0 -- -- 91
2019-11-15 05:00:00 0.2 16 Noroeste 28 Noroeste 0 -- -- 89
2019-11-15 04:00:00 0 16 Noroeste 32 Noroeste 0 -- -- 91
2019-11-15 03:00:00 0.4 24 Noroeste 33 Noroeste 0 -- -- 91
2019-11-15 02:00:00 0.7 22 Noroeste 33 Noroeste 0.2 -- -- 91
2019-11-15 01:00:00 0.6 19 Noroeste 33 Noroeste 0 -- -- 92
2019-11-15 00:00:00 0.5 14 Noroeste 28 Noroeste 0.2 -- -- 93